Time;durP1;ratioP1;P1;durP2;ratioP2;P2;SDS_P1;SDS_P2;PMS_P1;PMS_P2;Temp;Humidity;BMP_temperature;BMP_pressure;BME280_temperature;BME280_humidity;BME280_pressure;Samples;Min_cycle;Max_cycle;Signal;HPM_P1;HPM_P2
2023/12/31 00:04:49;;;;;;;1.70;0.90;;;;;;;17.91;58.59;100120.44;20831938;28;20061;-70
2023/12/31 00:14:51;;;;;;;1.65;0.90;;;;;;;17.99;58.45;100117.81;20847418;28;20064;-70
2023/12/31 00:24:54;;;;;;;1.05;0.77;;;;;;;18.01;58.39;100115.84;20832000;28;20056;-70
2023/12/31 00:34:56;;;;;;;0.75;0.75;;;;;;;18.02;58.48;100106.75;20833833;28;20037;-70
2023/12/31 00:44:58;;;;;;;1.00;0.70;;;;;;;18.02;58.33;100095.16;20844164;28;20119;-70
2023/12/31 00:54:59;;;;;;;1.08;0.63;;;;;;;18.03;58.32;100084.19;20841017;28;20067;-70
2023/12/31 01:05:01;;;;;;;1.63;0.70;;;;;;;18.03;58.28;100059.13;20856174;28;20049;-70
2023/12/31 01:15:04;;;;;;;0.77;0.50;;;;;;;18.02;58.20;100042.13;20822804;28;20068;-70
2023/12/31 01:25:07;;;;;;;0.88;0.60;;;;;;;18.04;58.11;100034.72;20857937;28;20071;-70
2023/12/31 01:35:09;;;;;;;1.05;0.60;;;;;;;18.01;58.30;100024.25;20842878;28;20045;-70
2023/12/31 01:45:11;;;;;;;1.02;0.80;;;;;;;18.01;58.00;100004.59;20846709;28;20052;-70
2023/12/31 01:55:14;;;;;;;0.80;0.65;;;;;;;18.05;58.10;99990.63;20858608;28;20056;-70
2023/12/31 02:05:16;;;;;;;1.67;0.70;;;;;;;18.06;58.04;99978.84;20840291;28;20040;-70
2023/12/31 02:15:31;;;;;;;0.50;0.50;;;;;;;18.00;57.98;99965.16;20875436;28;20049;-70
2023/12/31 02:25:38;;;;;;;1.07;0.60;;;;;;;17.83;58.28;99919.28;20861792;28;20512;-70
2023/12/31 02:35:41;;;;;;;0.50;0.50;;;;;;;17.87;58.19;99909.88;20822778;28;20095;-70
2023/12/31 02:45:42;;;;;;;0.50;0.50;;;;;;;17.86;58.19;99897.41;20848283;28;20060;-70
2023/12/31 02:55:44;;;;;;;0.60;0.40;;;;;;;17.83;58.25;99874.38;20834208;28;20046;-70
2023/12/31 03:05:46;;;;;;;0.93;0.60;;;;;;;17.86;58.20;99853.50;20841735;28;20187;-70
2023/12/31 03:15:48;;;;;;;0.40;0.40;;;;;;;17.86;58.12;99831.97;20862916;28;20063;-70
2023/12/31 03:25:50;;;;;;;0.73;0.45;;;;;;;17.86;57.98;99816.63;20845129;28;20057;-70
2023/12/31 03:35:51;;;;;;;0.75;0.30;;;;;;;17.86;58.01;99810.44;20856859;28;20433;-70
2023/12/31 03:45:53;;;;;;;0.88;0.40;;;;;;;17.83;58.01;99790.03;20822834;28;20052;-70
2023/12/31 03:55:55;;;;;;;0.30;0.30;;;;;;;17.82;58.13;99780.28;20839147;28;20501;-70
2023/12/31 04:05:57;;;;;;;0.40;0.38;;;;;;;17.86;57.78;99757.41;20834022;28;20093;-70
2023/12/31 04:15:59;;;;;;;1.05;0.50;;;;;;;17.89;57.76;99724.78;20843552;28;20055;-70
2023/12/31 04:26:01;;;;;;;0.63;0.50;;;;;;;17.89;57.61;99702.41;20850471;28;20044;-70
2023/12/31 04:36:03;;;;;;;0.70;0.50;;;;;;;17.81;57.59;99679.84;20857607;28;20080;-70
2023/12/31 04:46:05;;;;;;;0.50;0.50;;;;;;;17.89;57.50;99651.25;20865058;28;20041;-70
2023/12/31 04:56:17;;;;;;;1.52;0.35;;;;;;;17.90;57.35;99628.69;20841143;28;20669;-70
2023/12/31 05:06:19;;;;;;;0.38;0.32;;;;;;;17.97;57.00;99624.31;20864217;28;20102;-70
2023/12/31 05:16:22;;;;;;;1.10;0.40;;;;;;;17.98;57.05;99610.69;20852586;28;20052;-70
2023/12/31 05:26:24;;;;;;;1.02;0.40;;;;;;;18.03;56.95;99582.47;20866178;28;20056;-70
2023/12/31 05:36:26;;;;;;;0.88;0.50;;;;;;;18.00;56.80;99551.28;20861813;28;20049;-70
2023/12/31 05:46:28;;;;;;;0.45;0.40;;;;;;;18.02;56.74;99530.44;20856764;28;20433;-70
2023/12/31 05:56:29;;;;;;;0.85;0.73;;;;;;;18.05;56.72;99522.00;20841683;28;20052;-70
2023/12/31 06:06:35;;;;;;;0.50;0.50;;;;;;;18.05;56.44;99497.78;20861429;28;20045;-70
2023/12/31 06:16:37;;;;;;;0.57;0.47;;;;;;;18.04;56.46;99485.31;20834329;28;20059;-70
2023/12/31 06:26:39;;;;;;;0.70;0.50;;;;;;;18.04;56.57;99468.34;20856082;28;20049;-70
2023/12/31 06:36:40;;;;;;;0.50;0.50;;;;;;;18.06;56.46;99471.69;20828743;28;20516;-70
2023/12/31 06:46:42;;;;;;;0.50;0.40;;;;;;;18.07;56.11;99452.66;20847170;28;20064;-70
2023/12/31 06:56:44;;;;;;;0.55;0.50;;;;;;;18.08;56.06;99429.28;20823457;28;20062;-70
2023/12/31 07:06:45;;;;;;;0.73;0.70;;;;;;;18.06;56.16;99418.66;20831592;28;20489;-70
2023/12/31 07:16:47;;;;;;;0.80;0.65;;;;;;;18.07;55.97;99400.66;20846725;28;20786;-70
2023/12/31 07:26:49;;;;;;;0.68;0.57;;;;;;;18.06;55.99;99386.34;20836883;28;20049;-70
2023/12/31 07:36:51;;;;;;;0.90;0.60;;;;;;;18.00;56.10;99370.03;20827005;28;20053;-70
2023/12/31 07:46:53;;;;;;;0.80;0.70;;;;;;;17.94;56.34;99366.19;20804157;28;20056;-70
2023/12/31 07:56:55;;;;;;;1.05;0.80;;;;;;;17.93;56.31;99346.50;20840684;28;20064;-70
2023/12/31 08:06:56;;;;;;;1.00;0.90;;;;;;;17.94;56.35;99339.25;20826823;28;20060;-70
2023/12/31 08:16:58;;;;;;;1.15;0.88;;;;;;;17.97;56.17;99333.53;20839860;28;20045;-70
2023/12/31 08:27:00;;;;;;;0.93;0.70;;;;;;;17.99;56.27;99326.09;20825912;28;20130;-70
2023/12/31 08:37:02;;;;;;;0.65;0.52;;;;;;;17.99;56.07;99304.56;20822090;28;20044;-70
2023/12/31 08:47:04;;;;;;;1.05;0.60;;;;;;;18.00;56.04;99286.56;20842466;28;20124;-70
2023/12/31 08:57:06;;;;;;;0.80;0.68;;;;;;;18.03;56.16;99272.78;20841113;28;20059;-69
2023/12/31 09:07:07;;;;;;;0.85;0.77;;;;;;;17.78;55.93;99209.13;20828129;28;20052;-70
2023/12/31 09:17:10;;;;;;;0.63;0.50;;;;;;;18.10;55.89;99253.03;20849941;28;20510;-70
2023/12/31 09:27:12;;;;;;;0.88;0.70;;;;;;;18.15;55.68;99249.81;20867137;28;20568;-70
2023/12/31 09:37:18;;;;;;;0.90;0.80;;;;;;;18.20;55.48;99233.94;20855259;28;20103;-70
2023/12/31 09:47:22;;;;;;;1.58;0.70;;;;;;;18.24;55.50;99226.38;20839164;28;20046;-69
2023/12/31 09:57:26;;;;;;;0.80;0.70;;;;;;;18.23;55.84;99213.91;20823560;28;20048;-67
2023/12/31 10:07:28;;;;;;;2.88;0.80;;;;;;;18.47;55.57;99187.78;20836682;28;20141;-68
2023/12/31 10:17:31;;;;;;;0.80;0.80;;;;;;;18.60;55.37;99161.06;20828263;28;20516;-68
2023/12/31 10:27:33;;;;;;;1.33;0.90;;;;;;;18.95;55.47;99153.25;20816818;28;20056;-68
2023/12/31 10:37:35;;;;;;;1.63;0.90;;;;;;;19.08;55.79;99128.38;20819663;28;20064;-68
2023/12/31 10:47:37;;;;;;;1.30;0.80;;;;;;;19.36;55.20;99126.84;20806677;28;20136;-68
2023/12/31 10:57:42;;;;;;;0.68;0.68;;;;;;;19.52;55.18;99125.78;20829698;28;20051;-71
2023/12/31 11:07:46;;;;;;;1.00;0.80;;;;;;;19.52;55.29;99123.94;20820848;28;20048;-68
2023/12/31 11:18:09;;;;;;;0.87;0.80;;;;;;;19.52;55.54;99110.44;20825167;28;20051;-69
2023/12/31 11:28:11;;;;;;;1.80;0.60;;;;;;;19.56;55.58;99114.41;20818898;28;20048;-71
2023/12/31 11:38:14;;;;;;;1.27;0.90;;;;;;;19.62;55.61;99104.69;20810266;28;20088;-70
2023/12/31 11:48:26;;;;;;;0.70;0.70;;;;;;;19.72;55.56;99112.50;20821421;28;20501;-68
2023/12/31 11:58:28;;;;;;;1.60;0.80;;;;;;;19.68;55.80;99154.41;20805391;28;20055;-70
2023/12/31 12:08:30;;;;;;;0.60;0.60;;;;;;;19.68;55.91;99149.00;20814324;28;20053;-70
2023/12/31 12:18:32;;;;;;;1.30;0.80;;;;;;;19.62;56.17;99120.06;20818922;28;20784;-74
2023/12/31 12:28:34;;;;;;;1.65;0.70;;;;;;;19.61;56.07;99077.91;20798649;28;20041;-69
2023/12/31 12:38:37;;;;;;;0.68;0.55;;;;;;;20.17;54.81;99076.34;20819769;28;20068;-69
2023/12/31 12:48:49;;;;;;;1.02;0.60;;;;;;;19.91;54.73;99073.25;20834721;28;20049;-69
2023/12/31 12:58:50;;;;;;;0.85;0.68;;;;;;;19.71;55.32;99064.94;20832593;28;20049;-69
2023/12/31 13:08:52;;;;;;;1.48;0.55;;;;;;;19.74;55.30;99078.03;20824292;28;20076;-71
2023/12/31 13:18:54;;;;;;;2.60;0.80;;;;;;;19.65;55.79;99093.53;20826246;28;20090;-70
2023/12/31 13:28:56;;;;;;;0.63;0.50;;;;;;;19.70;56.34;99106.44;20826675;28;20138;-73
2023/12/31 13:39:01;;;;;;;0.80;0.52;;;;;;;19.38;56.45;99074.38;20837728;28;20048;-73
2023/12/31 13:49:02;;;;;;;0.60;0.57;;;;;;;19.65;56.86;99131.31;20803553;28;20138;-71
2023/12/31 13:59:04;;;;;;;0.50;0.40;;;;;;;19.63;56.76;99127.16;20830507;28;20049;-71
2023/12/31 14:09:09;;;;;;;1.05;0.55;;;;;;;19.62;57.24;99147.06;20789862;28;20178;-70
2023/12/31 14:19:11;;;;;;;2.88;0.77;;;;;;;19.64;57.33;99158.50;20823767;28;20398;-71
2023/12/31 14:29:27;;;;;;;0.98;0.60;;;;;;;19.60;57.34;99163.44;20821195;28;20576;-70
2023/12/31 14:39:29;;;;;;;2.55;0.80;;;;;;;19.61;57.60;99167.00;20824373;28;20240;-72
2023/12/31 14:49:30;;;;;;;1.77;0.80;;;;;;;19.58;57.73;99183.56;20819857;28;20042;-71
2023/12/31 14:59:32;;;;;;;2.25;0.95;;;;;;;19.54;57.76;99177.69;20816094;28;20056;-73
2023/12/31 15:09:34;;;;;;;1.48;0.63;;;;;;;19.53;57.81;99190.38;20819776;28;20134;-72
2023/12/31 15:19:36;;;;;;;1.40;0.70;;;;;;;19.52;57.41;99188.69;20814061;28;20045;-71
2023/12/31 15:29:38;;;;;;;1.67;0.80;;;;;;;19.45;59.44;99181.53;20801551;28;20051;-70
2023/12/31 15:39:41;;;;;;;3.47;1.20;;;;;;;19.41;61.56;99183.75;20812768;28;20049;-71
2023/12/31 15:49:43;;;;;;;6.95;3.45;;;;;;;19.45;63.51;99185.09;20795452;28;20177;-72
2023/12/31 15:59:45;;;;;;;5.00;2.25;;;;;;;19.44;61.19;99182.56;20812740;28;20056;-71
2023/12/31 16:09:47;;;;;;;7.53;3.05;;;;;;;19.50;62.55;99187.19;20806233;28;20079;-78
2023/12/31 16:19:48;;;;;;;4.97;2.38;;;;;;;19.62;62.04;99198.34;20800560;28;20139;-73
2023/12/31 16:29:51;;;;;;;4.45;1.73;;;;;;;19.56;61.23;99202.63;20815226;28;20103;-72
2023/12/31 16:39:53;;;;;;;4.47;1.95;;;;;;;19.48;61.26;99200.06;20804380;28;20490;-72
2023/12/31 16:49:55;;;;;;;5.88;2.40;;;;;;;19.36;60.16;99199.69;20773968;28;1099227;-71
2023/12/31 16:59:57;;;;;;;3.75;1.45;;;;;;;19.18;59.68;99200.91;20800186;28;20501;-72
2023/12/31 17:10:01;;;;;;;2.95;1.85;;;;;;;19.08;59.20;99205.75;20786754;28;20065;-73
2023/12/31 17:20:04;;;;;;;3.28;1.48;;;;;;;18.99;59.06;99199.59;20816322;28;20517;-72
2023/12/31 17:30:06;;;;;;;2.67;1.30;;;;;;;18.91;58.90;99197.78;20813828;28;20131;-76
2023/12/31 17:40:09;;;;;;;2.83;1.50;;;;;;;19.01;58.74;99199.44;20835044;28;20045;-72
2023/12/31 17:50:11;;;;;;;3.08;1.75;;;;;;;19.05;58.61;99195.34;20831810;28;20045;-73
2023/12/31 18:00:13;;;;;;;2.55;1.50;;;;;;;19.06;58.29;99207.81;20822837;28;20056;-73
2023/12/31 18:10:15;;;;;;;4.20;1.80;;;;;;;19.08;58.63;99208.47;20829738;28;20057;-73
2023/12/31 18:20:17;;;;;;;3.10;1.65;;;;;;;19.05;58.68;99217.75;20835333;28;20060;-73
2023/12/31 18:30:18;;;;;;;3.22;1.52;;;;;;;19.06;58.66;99224.00;20840658;28;20107;-73
2023/12/31 18:40:29;;;;;;;2.65;1.50;;;;;;;19.06;58.85;99224.81;20822082;28;20065;-72
2023/12/31 18:50:31;;;;;;;4.18;1.67;;;;;;;18.91;58.88;99216.66;20807710;28;20045;-70
2023/12/31 19:00:33;;;;;;;2.78;1.75;;;;;;;18.84;58.99;99227.38;20819982;28;20420;-71
2023/12/31 19:10:35;;;;;;;4.63;2.00;;;;;;;18.82;59.00;99229.41;20828506;28;20752;-73
2023/12/31 19:20:36;;;;;;;5.60;2.00;;;;;;;18.75;59.04;99223.06;20820962;28;20490;-72
2023/12/31 19:30:40;;;;;;;3.20;1.77;;;;;;;18.75;58.75;99236.53;20807384;28;20796;-73
2023/12/31 19:40:42;;;;;;;3.63;2.13;;;;;;;18.75;58.69;99227.63;20856942;28;20448;-73
2023/12/31 19:50:44;;;;;;;3.53;1.98;;;;;;;18.65;58.41;99244.03;20820025;28;20045;-73
2023/12/31 20:00:45;;;;;;;3.63;1.92;;;;;;;18.61;58.45;99253.50;20804084;28;20447;-73
2023/12/31 20:10:48;;;;;;;4.47;2.03;;;;;;;18.58;58.32;99251.19;20832128;28;20044;-73
2023/12/31 20:20:50;;;;;;;3.25;1.70;;;;;;;18.49;58.30;99234.22;20808190;28;20057;-73
2023/12/31 20:30:51;;;;;;;3.40;1.80;;;;;;;18.51;58.10;99243.84;20831766;28;20053;-73
2023/12/31 20:40:53;;;;;;;5.43;2.15;;;;;;;18.41;58.13;99244.06;20813033;28;20105;-73
2023/12/31 20:50:55;;;;;;;4.28;2.17;;;;;;;18.34;57.79;99247.66;20813300;28;20064;-73
2023/12/31 21:00:57;;;;;;;4.80;2.30;;;;;;;18.37;57.93;99272.38;20809492;28;20053;-73
2023/12/31 21:11:00;;;;;;;3.83;2.25;;;;;;;18.28;58.07;99270.78;20824070;28;20065;-72
2023/12/31 21:21:02;;;;;;;3.80;1.95;;;;;;;18.26;57.92;99252.09;20850478;28;20187;-72
2023/12/31 21:31:04;;;;;;;3.92;2.08;;;;;;;18.26;57.78;99248.56;20839678;28;20045;-72
2023/12/31 21:41:05;;;;;;;2.92;1.92;;;;;;;18.24;57.79;99253.28;20833291;28;20044;-72
2023/12/31 21:51:08;;;;;;;4.20;2.10;;;;;;;18.13;57.73;99240.25;20829331;28;20052;-72
2023/12/31 22:01:09;;;;;;;4.15;1.98;;;;;;;18.17;57.77;99263.13;20879629;28;20061;-72
2023/12/31 22:11:11;;;;;;;3.78;2.10;;;;;;;18.13;57.98;99272.56;20845774;28;20077;-73
2023/12/31 22:21:14;;;;;;;3.30;2.15;;;;;;;18.10;57.81;99266.50;20822036;28;20056;-73
2023/12/31 22:31:16;;;;;;;3.45;1.70;;;;;;;18.07;57.80;99266.84;20806671;28;20427;-73
2023/12/31 22:41:18;;;;;;;4.13;2.13;;;;;;;18.05;57.68;99266.19;20825963;28;20049;-73
2023/12/31 22:51:20;;;;;;;4.03;1.80;;;;;;;18.03;57.75;99262.00;20830481;28;20060;-72
2023/12/31 23:01:21;;;;;;;2.85;1.60;;;;;;;18.04;57.75;99256.44;20825179;28;20056;-73
2023/12/31 23:11:23;;;;;;;2.70;1.85;;;;;;;18.09;57.59;99261.31;20830055;28;20048;-73
2023/12/31 23:21:25;;;;;;;3.47;1.85;;;;;;;18.11;57.45;99276.25;20871080;28;20496;-72
2023/12/31 23:31:27;;;;;;;3.60;2.03;;;;;;;18.10;57.41;99263.78;20813016;28;20043;-73
2023/12/31 23:41:32;;;;;;;3.33;2.20;;;;;;;18.06;57.46;99265.16;20825646;28;20045;-73
2023/12/31 23:51:45;;;;;;;3.10;2.40;;;;;;;17.95;57.52;99252.94;20825200;28;20052;-73
